createdAt,value
2023-03-27T00:01:13.113Z,4.80
2023-03-27T00:04:00.353Z,4.80
2023-03-27T00:06:49.212Z,4.80
2023-03-27T00:09:37.127Z,4.80
2023-03-27T00:12:25.610Z,4.70
2023-03-27T00:15:17.085Z,4.60
2023-03-27T00:18:04.403Z,4.60
2023-03-27T00:20:51.706Z,4.60
2023-03-27T00:23:38.972Z,4.60
2023-03-27T00:26:26.374Z,4.60
2023-03-27T00:29:15.085Z,4.50
2023-03-27T00:32:02.330Z,4.50
2023-03-27T00:34:49.842Z,4.40
2023-03-27T00:37:37.459Z,4.50
2023-03-27T00:40:25.366Z,4.40
2023-03-27T00:43:21.435Z,4.40
2023-03-27T00:46:27.618Z,4.30
2023-03-27T00:49:17.281Z,4.30
2023-03-27T00:52:07.180Z,4.30
2023-03-27T00:54:55.152Z,4.20
2023-03-27T00:57:45.553Z,4.20
2023-03-27T01:00:34.810Z,4.20
2023-03-27T01:03:27.044Z,4.20
2023-03-27T01:06:16.918Z,4.20
2023-03-27T01:09:05.672Z,4.20
2023-03-27T01:12:06.818Z,4.20
2023-03-27T01:15:07.581Z,4.20
2023-03-27T01:18:09.053Z,4.10
2023-03-27T01:21:37.572Z,4.10
2023-03-27T01:25:11.585Z,4.00
2023-03-27T01:28:31.453Z,4.00
2023-03-27T01:31:45.773Z,3.90
2023-03-27T01:35:11.395Z,3.90
2023-03-27T01:38:20.724Z,3.80
2023-03-27T01:41:15.663Z,3.70
2023-03-27T01:44:05.764Z,3.70
2023-03-27T01:46:56.676Z,3.60
2023-03-27T01:49:49.305Z,3.60
2023-03-27T01:52:40.932Z,3.70
2023-03-27T01:55:32.781Z,3.60
2023-03-27T01:58:28.239Z,3.60
2023-03-27T02:01:20.739Z,3.70
2023-03-27T02:04:13.889Z,3.60
2023-03-27T02:07:06.122Z,3.60
2023-03-27T02:10:00.122Z,3.60
2023-03-27T02:12:51.267Z,3.60
2023-03-27T02:15:42.492Z,3.50
2023-03-27T02:18:33.448Z,3.50
2023-03-27T02:21:23.572Z,3.50
2023-03-27T02:24:11.322Z,3.40
2023-03-27T02:27:07.620Z,3.40
2023-03-27T02:30:04.044Z,3.40
2023-03-27T02:33:02.543Z,3.30
2023-03-27T02:36:00.259Z,3.30
2023-03-27T02:38:54.884Z,3.20
2023-03-27T02:41:52.227Z,3.20
2023-03-27T02:45:03.762Z,3.20
2023-03-27T02:47:56.066Z,3.10
2023-03-27T02:50:49.183Z,3.10
2023-03-27T02:53:42.106Z,3.10
2023-03-27T02:56:33.124Z,3.00
2023-03-27T02:59:24.790Z,2.90
2023-03-27T03:02:15.840Z,2.90
2023-03-27T03:05:22.083Z,2.80
2023-03-27T03:08:10.167Z,2.80
2023-03-27T03:11:02.611Z,2.70
2023-03-27T03:13:50.015Z,2.70
2023-03-27T03:16:38.003Z,2.70
2023-03-27T03:19:25.319Z,2.70
2023-03-27T03:22:14.656Z,2.70
2023-03-27T03:25:01.899Z,2.70
2023-03-27T03:27:49.910Z,2.70
2023-03-27T03:30:38.818Z,2.70
2023-03-27T03:33:31.022Z,2.70
2023-03-27T03:36:18.285Z,2.60
2023-03-27T03:39:07.167Z,2.60
2023-03-27T03:41:54.388Z,2.60
2023-03-27T03:44:41.711Z,2.60
2023-03-27T03:47:37.345Z,2.60
2023-03-27T03:50:24.892Z,2.40
2023-03-27T03:53:12.704Z,2.40
2023-03-27T03:56:01.492Z,2.40
2023-03-27T03:58:48.742Z,2.30
2023-03-27T04:01:36.443Z,2.30
2023-03-27T04:04:26.194Z,2.20
2023-03-27T04:07:23.345Z,2.30
2023-03-27T04:10:14.634Z,2.20
2023-03-27T04:13:03.871Z,2.20
2023-03-27T04:15:55.607Z,2.10
2023-03-27T04:18:55.534Z,2.10
2023-03-27T04:21:47.249Z,2.10
2023-03-27T04:24:35.531Z,2.10
2023-03-27T04:27:23.109Z,2.00
2023-03-27T04:30:23.733Z,2.10
2023-03-27T04:33:30.711Z,2.10
2023-03-27T04:36:37.462Z,2.10
2023-03-27T04:39:30.905Z,2.00
2023-03-27T04:42:22.464Z,2.00
2023-03-27T04:45:12.225Z,2.00
2023-03-27T04:48:01.787Z,2.00
2023-03-27T04:50:51.580Z,2.00
2023-03-27T04:53:52.100Z,2.00
2023-03-27T04:56:41.737Z,2.00
2023-03-27T04:59:32.216Z,2.00
2023-03-27T05:02:55.962Z,2.00
2023-03-27T05:05:51.031Z,2.00
2023-03-27T05:08:38.404Z,2.00
2023-03-27T05:11:26.004Z,2.10
2023-03-27T05:14:14.979Z,2.10
2023-03-27T05:17:02.341Z,2.10
2023-03-27T05:19:49.673Z,2.20
2023-03-27T05:22:38.562Z,2.20
2023-03-27T05:25:39.308Z,2.20
2023-03-27T05:28:31.216Z,2.10
2023-03-27T05:31:19.192Z,2.10
2023-03-27T05:34:15.850Z,2.20
2023-03-27T05:37:06.094Z,2.10
2023-03-27T05:40:01.567Z,2.10
2023-03-27T05:42:49.832Z,2.00
2023-03-27T05:45:37.373Z,2.10
2023-03-27T05:48:24.812Z,2.00
2023-03-27T05:51:12.281Z,2.10
2023-03-27T05:53:59.661Z,2.10
2023-03-27T05:56:57.779Z,2.10
2023-03-27T05:59:46.246Z,2.10
2023-03-27T06:02:43.760Z,2.30
2023-03-27T06:05:33.906Z,2.40
2023-03-27T06:08:22.606Z,2.50
2023-03-27T06:11:10.972Z,2.50
2023-03-27T06:14:07.192Z,2.60
2023-03-27T06:17:10.710Z,2.80
2023-03-27T06:20:12.376Z,2.80
2023-03-27T06:23:01.535Z,3.00
2023-03-27T06:25:53.030Z,3.30
2023-03-27T06:28:44.113Z,3.10
2023-03-27T06:31:33.623Z,3.50
2023-03-27T06:34:29.982Z,3.50
2023-03-27T06:37:24.944Z,3.60
2023-03-27T06:40:22.819Z,3.60
2023-03-27T06:43:12.261Z,3.50
2023-03-27T06:46:18.865Z,3.90
2023-03-27T06:49:27.793Z,4.30
2023-03-27T06:52:15.651Z,4.00
2023-03-27T06:55:04.497Z,4.40
2023-03-27T06:57:54.042Z,4.60
2023-03-27T07:00:41.932Z,4.40
2023-03-27T07:03:49.490Z,4.10
2023-03-27T07:06:58.432Z,3.80
2023-03-27T07:09:46.964Z,3.40
2023-03-27T07:12:37.226Z,3.40
2023-03-27T07:15:26.253Z,3.70
2023-03-27T07:18:15.200Z,3.40
2023-03-27T07:21:09.294Z,3.40
2023-03-27T07:23:58.074Z,3.40
2023-03-27T07:26:53.655Z,3.80
2023-03-27T07:29:50.548Z,4.30
2023-03-27T07:32:44.691Z,4.30
2023-03-27T07:35:32.490Z,4.10
2023-03-27T07:38:43.029Z,4.20
2023-03-27T07:41:44.419Z,4.10
2023-03-27T07:44:45.647Z,4.10
2023-03-27T07:47:33.035Z,4.70
2023-03-27T07:50:22.625Z,4.70
2023-03-27T07:53:10.200Z,4.40
2023-03-27T07:56:19.290Z,4.40
2023-03-27T07:59:09.120Z,4.50
2023-03-27T08:01:57.676Z,4.20
2023-03-27T08:04:48.209Z,4.60
2023-03-27T08:07:36.498Z,4.50
2023-03-27T08:10:24.426Z,4.10
2023-03-27T08:13:18.290Z,4.10
2023-03-27T08:16:09.493Z,4.10
2023-03-27T08:18:57.550Z,4.30
2023-03-27T08:21:45.819Z,4.40
2023-03-27T08:24:33.274Z,4.50
2023-03-27T08:27:28.662Z,4.30
2023-03-27T08:30:17.542Z,4.20
2023-03-27T08:33:06.131Z,5.60
2023-03-27T08:35:53.408Z,5.20
2023-03-27T08:38:45.220Z,4.70
2023-03-27T08:41:42.478Z,5.10
2023-03-27T08:44:36.186Z,4.60
2023-03-27T08:47:36.818Z,4.50
2023-03-27T08:50:41.399Z,5.30
2023-03-27T08:53:44.643Z,5.00
2023-03-27T08:56:31.992Z,5.30
2023-03-27T08:59:22.644Z,5.00
2023-03-27T09:02:21.905Z,5.30
2023-03-27T09:05:17.886Z,5.40
2023-03-27T09:08:12.495Z,5.00
2023-03-27T09:11:06.475Z,4.90
2023-03-27T09:14:05.891Z,4.90
2023-03-27T09:16:56.807Z,5.00
2023-03-27T09:19:57.216Z,5.00
2023-03-27T09:22:56.274Z,5.00
2023-03-27T09:26:11.043Z,4.70
2023-03-27T09:29:35.172Z,4.40
2023-03-27T09:32:46.927Z,5.00
2023-03-27T09:35:38.632Z,4.60
2023-03-27T09:38:33.161Z,4.70
2023-03-27T09:41:27.937Z,5.30
2023-03-27T09:44:20.890Z,5.50
2023-03-27T09:47:15.392Z,5.50
2023-03-27T09:50:22.398Z,5.70
2023-03-27T09:53:22.800Z,6.30
2023-03-27T09:56:18.280Z,6.40
2023-03-27T09:59:26.246Z,6.30
2023-03-27T10:02:21.997Z,5.70
2023-03-27T10:05:17.518Z,6.00
2023-03-27T10:08:31.018Z,6.30
2023-03-27T10:11:35.529Z,6.70
2023-03-27T10:14:30.804Z,6.70
2023-03-27T10:17:26.626Z,6.00
2023-03-27T10:20:23.191Z,5.70
2023-03-27T10:23:24.951Z,5.50
2023-03-27T10:26:17.056Z,5.30
2023-03-27T10:29:25.462Z,5.00
2023-03-27T10:32:14.842Z,5.20
2023-03-27T10:35:28.856Z,5.20
2023-03-27T10:38:36.479Z,5.30
2023-03-27T10:41:50.710Z,5.60
2023-03-27T10:44:39.223Z,6.00
2023-03-27T10:47:31.324Z,6.10
2023-03-27T10:50:23.021Z,6.30
2023-03-27T10:53:18.130Z,6.10
2023-03-27T10:56:26.697Z,5.70
2023-03-27T10:59:28.050Z,5.60
2023-03-27T11:02:28.468Z,5.60
2023-03-27T11:05:20.907Z,5.60
2023-03-27T11:08:16.572Z,5.70
2023-03-27T11:11:10.228Z,5.90
2023-03-27T11:14:07.818Z,5.80
2023-03-27T11:16:58.058Z,6.10
2023-03-27T11:20:27.166Z,5.70
2023-03-27T11:23:44.504Z,5.50
2023-03-27T11:27:04.084Z,5.50
2023-03-27T11:29:58.825Z,5.80
2023-03-27T11:32:53.439Z,6.30
2023-03-27T11:35:47.294Z,6.40
2023-03-27T11:39:04.792Z,6.40
2023-03-27T11:41:54.617Z,6.50
2023-03-27T11:44:42.756Z,6.90
2023-03-27T11:47:45.464Z,7.00
2023-03-27T11:50:43.219Z,7.30
2023-03-27T11:53:49.567Z,6.90
2023-03-27T11:57:04.233Z,7.00
2023-03-27T12:00:21.924Z,7.10
2023-03-27T12:03:28.023Z,7.10
2023-03-27T12:06:24.627Z,6.70
2023-03-27T12:09:25.764Z,7.30
2023-03-27T12:12:59.396Z,7.80
2023-03-27T12:16:14.988Z,7.80
2023-03-27T12:19:32.513Z,7.80
2023-03-27T12:22:48.463Z,6.60
2023-03-27T12:26:03.690Z,6.50
2023-03-27T12:29:26.172Z,6.10
2023-03-27T12:32:55.373Z,5.90
2023-03-27T12:35:47.125Z,6.10
2023-03-27T12:38:40.184Z,6.20
2023-03-27T12:41:31.228Z,6.50
2023-03-27T12:44:31.336Z,6.60
2023-03-27T12:47:25.024Z,6.70
2023-03-27T12:50:32.779Z,6.80
2023-03-27T12:53:41.022Z,6.60
2023-03-27T12:56:39.307Z,6.90
2023-03-27T12:59:29.155Z,7.00
2023-03-27T13:02:46.234Z,6.80
2023-03-27T13:06:08.202Z,7.20
2023-03-27T13:09:31.055Z,7.40
2023-03-27T13:12:58.561Z,6.90
2023-03-27T13:16:07.598Z,6.90
2023-03-27T13:19:28.241Z,6.40
2023-03-27T13:22:42.237Z,4.70
2023-03-27T13:26:02.745Z,5.00
2023-03-27T13:28:56.485Z,5.60
2023-03-27T13:32:04.692Z,6.00
2023-03-27T13:35:32.766Z,6.00
2023-03-27T13:39:01.442Z,6.20
2023-03-27T13:41:57.861Z,6.40
2023-03-27T13:45:01.140Z,7.00
2023-03-27T13:48:33.416Z,6.60
2023-03-27T13:51:43.530Z,6.10
2023-03-27T13:55:02.681Z,5.50
2023-03-27T13:58:25.203Z,5.50
2023-03-27T14:01:34.274Z,5.60
2023-03-27T14:04:51.099Z,5.40
2023-03-27T14:07:57.227Z,5.30
2023-03-27T14:11:16.388Z,5.30
2023-03-27T14:14:26.476Z,5.10
2023-03-27T14:17:37.757Z,5.00
2023-03-27T14:20:27.302Z,4.90
2023-03-27T14:23:22.382Z,4.90
2023-03-27T14:26:24.651Z,4.90
2023-03-27T14:29:15.453Z,5.30
2023-03-27T14:32:08.898Z,5.40
2023-03-27T14:35:02.814Z,5.40
2023-03-27T14:38:00.011Z,5.40
2023-03-27T14:40:58.990Z,5.60
2023-03-27T14:44:04.193Z,5.70
2023-03-27T14:47:00.136Z,6.00
2023-03-27T14:49:51.442Z,5.70
2023-03-27T14:52:56.097Z,5.70
2023-03-27T14:56:11.818Z,5.90
2023-03-27T14:59:20.261Z,5.90
2023-03-27T15:02:20.425Z,5.70
2023-03-27T15:05:12.212Z,5.60
2023-03-27T15:08:03.609Z,5.60
2023-03-27T15:11:12.362Z,5.60
2023-03-27T15:14:16.651Z,5.60
2023-03-27T15:17:07.937Z,5.60
2023-03-27T15:20:07.978Z,5.80
2023-03-27T15:23:03.384Z,6.00
2023-03-27T15:25:57.634Z,6.10
2023-03-27T15:28:53.305Z,6.00
2023-03-27T15:31:43.239Z,6.10
2023-03-27T15:34:36.396Z,6.30
2023-03-27T15:37:26.329Z,6.20
2023-03-27T15:40:42.507Z,6.40
2023-03-27T15:43:32.093Z,6.40
2023-03-27T15:46:21.460Z,6.30
2023-03-27T15:49:27.923Z,6.30
2023-03-27T15:52:31.893Z,6.40
2023-03-27T15:55:36.223Z,6.50
2023-03-27T15:58:26.193Z,6.60
2023-03-27T16:01:19.901Z,6.70
2023-03-27T16:04:10.264Z,6.60
2023-03-27T16:07:09.072Z,6.60
2023-03-27T16:09:59.720Z,6.60
2023-03-27T16:12:53.040Z,6.50
2023-03-27T16:15:42.552Z,6.40
2023-03-27T16:18:33.883Z,6.20
2023-03-27T16:21:23.123Z,6.10
2023-03-27T16:24:10.342Z,6.00
2023-03-27T16:26:57.750Z,5.70
2023-03-27T16:29:47.373Z,5.50
2023-03-27T16:32:36.074Z,5.30
2023-03-27T16:35:24.696Z,4.70
2023-03-27T16:38:12.126Z,4.80
2023-03-27T16:40:59.181Z,4.80
2023-03-27T16:43:48.705Z,4.70
2023-03-27T16:46:36.481Z,4.60
2023-03-27T16:49:23.605Z,4.60
2023-03-27T16:52:12.462Z,4.50
2023-03-27T16:54:59.685Z,4.50
2023-03-27T16:57:47.341Z,4.40
2023-03-27T17:00:34.362Z,4.50
2023-03-27T17:03:21.853Z,4.60
2023-03-27T17:06:11.487Z,4.40
2023-03-27T17:09:00.232Z,4.50
2023-03-27T17:11:47.685Z,4.50
2023-03-27T17:14:34.797Z,4.60
2023-03-27T17:17:22.554Z,4.30
2023-03-27T17:20:20.444Z,4.40
2023-03-27T17:23:09.487Z,4.40
2023-03-27T17:26:00.647Z,4.50
2023-03-27T17:28:48.702Z,4.30
2023-03-27T17:31:36.129Z,4.20
2023-03-27T17:34:23.291Z,4.30
2023-03-27T17:37:12.398Z,4.20
2023-03-27T17:40:00.644Z,4.20
2023-03-27T17:42:49.051Z,4.20
2023-03-27T17:45:41.751Z,4.20
2023-03-27T17:48:29.161Z,4.20
2023-03-27T17:51:17.022Z,4.10
2023-03-27T17:54:04.380Z,3.90
2023-03-27T17:56:51.745Z,4.00
2023-03-27T17:59:40.707Z,3.90
2023-03-27T18:02:27.910Z,4.00
2023-03-27T18:05:15.957Z,3.90
2023-03-27T18:08:03.220Z,4.00
2023-03-27T18:10:51.551Z,4.10
2023-03-27T18:13:39.174Z,4.10
2023-03-27T18:16:28.089Z,4.20
2023-03-27T18:19:15.871Z,4.20
2023-03-27T18:22:03.650Z,4.20
2023-03-27T18:24:51.151Z,4.20
2023-03-27T18:27:40.314Z,4.20
2023-03-27T18:30:27.737Z,4.20
2023-03-27T18:33:16.475Z,4.10
2023-03-27T18:36:04.775Z,4.00
2023-03-27T18:38:52.098Z,4.10
2023-03-27T18:41:39.779Z,4.10
2023-03-27T18:44:26.853Z,4.10
2023-03-27T18:47:14.254Z,3.90
2023-03-27T18:50:03.272Z,3.30
2023-03-27T18:52:50.522Z,3.20
2023-03-27T18:55:38.567Z,3.00
2023-03-27T18:58:26.700Z,2.90
2023-03-27T19:01:13.933Z,3.00
2023-03-27T19:04:01.433Z,3.00
2023-03-27T19:06:50.335Z,2.80
2023-03-27T19:09:41.372Z,2.90
2023-03-27T19:12:29.341Z,3.10
2023-03-27T19:15:35.336Z,3.20
2023-03-27T19:18:41.528Z,3.10
2023-03-27T19:21:46.578Z,3.10
2023-03-27T19:25:04.431Z,3.20
2023-03-27T19:27:51.828Z,3.20
2023-03-27T19:30:39.434Z,3.30
2023-03-27T19:33:28.044Z,3.30
2023-03-27T19:36:15.642Z,3.30
2023-03-27T19:39:04.327Z,3.30
2023-03-27T19:41:53.143Z,3.30
2023-03-27T19:44:40.183Z,3.30
2023-03-27T19:47:27.782Z,3.20
2023-03-27T19:50:17.055Z,3.20
2023-03-27T19:53:13.915Z,3.20
2023-03-27T19:56:01.269Z,3.30
2023-03-27T19:58:50.320Z,3.20
2023-03-27T20:01:38.489Z,3.10
2023-03-27T20:04:26.202Z,3.20
2023-03-27T20:07:13.715Z,3.10
2023-03-27T20:10:01.398Z,3.10
2023-03-27T20:12:48.952Z,3.10
2023-03-27T20:15:40.629Z,3.10
2023-03-27T20:18:32.654Z,3.00
2023-03-27T20:21:20.301Z,3.00
2023-03-27T20:24:10.147Z,3.00
2023-03-27T20:27:02.148Z,3.10
2023-03-27T20:29:49.638Z,3.10
2023-03-27T20:32:38.528Z,3.10
2023-03-27T20:35:25.747Z,3.10
2023-03-27T20:38:13.824Z,3.10
2023-03-27T20:41:03.621Z,3.10
2023-03-27T20:43:52.031Z,3.10
2023-03-27T20:46:39.381Z,3.00
2023-03-27T20:49:39.744Z,3.00
2023-03-27T20:52:28.478Z,2.90
2023-03-27T20:55:30.428Z,3.00
2023-03-27T20:58:21.605Z,2.90
2023-03-27T21:01:11.046Z,2.90
2023-03-27T21:04:02.112Z,2.90
2023-03-27T21:06:51.528Z,2.80
2023-03-27T21:09:39.065Z,2.70
2023-03-27T21:12:26.524Z,2.80
2023-03-27T21:15:14.304Z,2.80
2023-03-27T21:18:02.198Z,2.80
2023-03-27T21:20:50.289Z,2.80
2023-03-27T21:23:39.810Z,2.80
2023-03-27T21:26:27.328Z,2.70
2023-03-27T21:29:16.033Z,2.60
2023-03-27T21:32:03.470Z,2.60
2023-03-27T21:34:50.861Z,2.50
2023-03-27T21:37:38.290Z,2.30
2023-03-27T21:40:26.814Z,2.30
2023-03-27T21:43:14.349Z,2.20
2023-03-27T21:46:03.610Z,2.20
2023-03-27T21:48:51.238Z,2.20
2023-03-27T21:51:38.753Z,2.10
2023-03-27T21:54:26.428Z,2.00
2023-03-27T21:57:14.980Z,2.10
2023-03-27T22:00:02.372Z,2.00
2023-03-27T22:03:00.241Z,2.20
2023-03-27T22:05:57.360Z,2.20
2023-03-27T22:08:48.446Z,2.20
2023-03-27T22:11:35.932Z,2.20
2023-03-27T22:14:24.825Z,2.10
2023-03-27T22:17:12.419Z,2.10
2023-03-27T22:20:00.174Z,2.20
2023-03-27T22:22:48.464Z,2.20
2023-03-27T22:25:35.889Z,2.20
2023-03-27T22:28:23.210Z,2.20
2023-03-27T22:31:12.642Z,2.10
2023-03-27T22:33:59.939Z,2.20
2023-03-27T22:36:47.367Z,2.20
2023-03-27T22:39:34.876Z,2.20
2023-03-27T22:42:22.305Z,2.10
2023-03-27T22:45:10.361Z,2.10
2023-03-27T22:47:59.123Z,2.20
2023-03-27T22:50:53.456Z,2.30
2023-03-27T22:53:41.298Z,2.20
2023-03-27T22:56:28.498Z,2.20
2023-03-27T22:59:17.278Z,2.30
2023-03-27T23:02:04.360Z,2.30
2023-03-27T23:04:53.094Z,2.40
2023-03-27T23:07:40.476Z,2.40
2023-03-27T23:10:28.254Z,2.30
2023-03-27T23:13:15.749Z,2.30
2023-03-27T23:16:03.174Z,2.30
2023-03-27T23:18:50.603Z,2.40
2023-03-27T23:21:39.292Z,2.30
2023-03-27T23:24:26.703Z,2.20
2023-03-27T23:27:13.943Z,2.20
2023-03-27T23:30:01.475Z,2.30
2023-03-27T23:32:49.033Z,2.20
2023-03-27T23:35:37.095Z,2.30
2023-03-27T23:38:26.474Z,2.40
2023-03-27T23:41:16.261Z,2.20
2023-03-27T23:44:03.507Z,2.00
2023-03-27T23:46:51.129Z,2.10
2023-03-27T23:49:38.364Z,2.10
2023-03-27T23:52:25.884Z,2.00
2023-03-27T23:55:14.432Z,2.00
2023-03-27T23:58:01.668Z,2.00
